Espace membre
ImprimablePdf
Waimes, 17/05/2012, BEL - Les Cimes de Waimes
Liste des rapports > 45km - Classements
Recherche: Page: [1]
45 Entrées
 
Visualisez vos photos fournies par Sportograf en cliquant sur la petite icone située en début de ligne!

Les réclamations ne sont plus acceptées, les résultats sont considérés comme définitifs.
RangNrNomAgeIOCEquipeTempsTkmMoy.ScrLocalité
Vos photos grâce à Sportograf1.2442MOORS Fons67BELJANSSEN CYCLING TEAM GENK2:33:403:25 17.5741
Vos photos grâce à Sportograf2.2218ROSSIGNOL Jean- Luc55BEL2:41:223:36 16.7355AFFLIGEM
Vos photos grâce à Sportograf3.2307SCHAUSS Roland53BELDECORAMA VTT MALMEDY2:52:123:50 15.6880WAIMES
Vos photos grâce à Sportograf4.2311JANSSEN Paul52BEL2:54:123:53 15.5086
Vos photos grâce à Sportograf5.2294ROSEN Alain50BEL2:54:383:53 15.4689MALMEDY
Vos photos grâce à Sportograf6.2496SCHUERMANS Danny503:00:384:01 14.95101
Vos photos grâce à Sportograf7.2132ROSART Christian58BELTWENTYNINERS3:04:074:06 14.66112FRASNES-LEZ-GOSSELIES
Vos photos grâce à Sportograf8.2469VANDEWAUW Guido René52BEL3:04:404:07 14.62117DILSEN-STOKKEM
Vos photos grâce à Sportograf9.2353KALTER Klaus513:11:284:16 14.10136
Vos photos grâce à Sportograf10.2226HONDERS Léon62BEL3:13:094:18 13.98144HERVE
Vos photos grâce à Sportograf11.2193GREEVEN Bonie51BEL3:14:184:20 13.90148OLEN
Vos photos grâce à Sportograf12.2213CELIS Mark51BELVWB3:16:384:23 13.73159DIEST
Vos photos grâce à Sportograf13.2196HECK Gerhard51BELTSV HEPPENBACH3:19:284:26 13.54167AMEL
Vos photos grâce à Sportograf14.2250MOUS Johan51BEL3:20:264:28 13.47172KALMTHOUT
Vos photos grâce à Sportograf15.2364VANHAY Georges59BEL3:23:434:32 13.25183SERAING
Vos photos grâce à Sportograf16.2466DE CLEYN Marc51BELCYCLO BIKE ANTWERPEN3:24:044:33 13.23185
Vos photos grâce à Sportograf17.2357STREVELER Felix63LUX3:30:514:42 12.81200
Vos photos grâce à Sportograf18.2368DISTRAIT Philip51BEL3:33:374:45 12.64209
Vos photos grâce à Sportograf19.2374LECHIEN Philippe Jean56BEL3:35:134:47 12.55215SCHAERBEEK
Vos photos grâce à Sportograf20.2116PATERNÔTRE Frédéric50BELNOUSOOT BIKERS TEAM3:38:444:52 12.34220LE ROEULX
Vos photos grâce à Sportograf21.2441VERCRUYSSE Jean Pierre54BEL3:39:284:53 12.30221OLNE
Vos photos grâce à Sportograf22.2049VAN ELSEN Koen52BEL3:47:285:04 11.87243
Vos photos grâce à Sportograf23.2127BRAET Patrick56BELWTC OOSTKAMP RANDONNEUR3:50:005:07 11.74245OOSTKAMP
Vos photos grâce à Sportograf24.2263VAN DYCK Jozef58BEL3:59:585:20 11.25260BOOISCHOT
Vos photos grâce à Sportograf25.2113RYMENANTS Eddy58BEL4:00:095:21 11.24262BEERZEL
Vos photos grâce à Sportograf26.2018LAMBRECHTS Raf50BEL4:00:215:21 11.23264
Vos photos grâce à Sportograf27.2339CASTREMAN Andre55BELAMBTHEUX4:02:235:24 11.14268PEPINSTER
Vos photos grâce à Sportograf28.2471CAMUS Bernard51BEL4:05:065:27 11.02272
Vos photos grâce à Sportograf29.2340DELHEZ Frederic50BEL4:08:495:32 10.85280
Vos photos grâce à Sportograf30.2427HENDERSON Tete En L'Air58NLD4:14:075:39 10.63290
Vos photos grâce à Sportograf31.2042VALENTIJN Lambert60NLD4:17:285:44 10.49298SITTARD
Vos photos grâce à Sportograf32.2256LOMMERS Tiny54NLDTC PRESTO4:20:205:48 10.37305SPRANG CAPELLE
Vos photos grâce à Sportograf33.2406JANS Jacques Marie59BEL4:20:535:48 10.35308SPRIMONT
Vos photos grâce à Sportograf34.2398BOUHY Christian53BEL4:21:065:49 10.34309
Vos photos grâce à Sportograf35.2253VAN GEMERT Harry53NLD4:21:185:49 10.33311
Vos photos grâce à Sportograf36.2395CHEUVART Patrick Léon50BEL4:24:565:54 10.19319STOUMONT
Vos photos grâce à Sportograf37.2418GOVARD Joseph544:26:325:56 10.13329
Vos photos grâce à Sportograf38.2370MAQUINAY Jean-Claude574:27:235:57 10.10333
Vos photos grâce à Sportograf39.2412GOFFINET Rene58BEL4:30:506:02 9.97336
Vos photos grâce à Sportograf40.2490DEBAUTE Eddy51BEL4:32:436:04 9.90344
Vos photos grâce à Sportograf41.2283MAROTTE Alain50FRASKUD4:41:106:15 9.60354LONGWY
Vos photos grâce à Sportograf42.2324HUGO Otto544:43:366:19 9.52360
Vos photos grâce à Sportograf43.2343SCHILT Alain52NLD5:09:106:53 8.73392
Vos photos grâce à SportografDNF2208LATHOUWERS Marc55BELTAVIGNY
Vos photos grâce à SportografDNF2120NONDONFAZ Pierre60BELLES BLAIREAUXSPA
DNF: abandon; DSQ: disqualifié; Vitesse en km/h